Flight Track Log - Related Links

Times and Time Zones

All times are in EDT time to prevent confusion due to time zone crossing. See the UAL4625 flight status page for this flight to view local times or setup timezone preferences in your user account.

Time Position Orientation Groundspeed Altitude Reporting Facility
EDT Latitude Longitude Course Direction KTS km/h meters Rate Location/Type
Wed 06:33:44 44.8833 -63.5167 180° South 170 315 640  Level Moncton Center
Wed 06:34:44 44.8833 -63.6167 270° West 220 407 1,341 732 Climbing Moncton Center
Wed 06:35:44 44.8667 -63.7167 257° West 250 463 2,103 747 Climbing Moncton Center
Wed 06:36:44 44.8500 -63.8000 254° West 280 518 2,835 655 Climbing Moncton Center
Wed 06:37:44 44.8333 -63.9333 260° West 290 538 3,414 488 Climbing Moncton Center
Wed 06:38:44 44.8167 -64.0667 260° West 340 629 3,810 488 Climbing Moncton Center
Wed 06:39:00 44.7763 -64.3000 180° South  Level FlightAware Approximate
Wed 06:39:44 44.7833 -64.2167 253° West 360 666 4,389  Level Moncton Center
Wed 06:40:44 44.7667 -64.3500 260° West 370 686 4,938 533 Climbing Moncton Center
Wed 06:41:44 44.7500 -64.4833 260° West 370 686 5,456 411 Climbing Moncton Center
Wed 06:42:44 44.7333 -64.6333 261° West 380 703 5,761 366 Climbing Moncton Center
Wed 06:43:44 44.7167 -64.7667 260° West 380 703 6,187 411 Climbing Moncton Center
Wed 06:44:44 44.7000 -64.9333 262° West 390 723 6,584 427 Climbing Moncton Center
Wed 06:45:44 44.6833 -65.0833 261° West 390 723 7,041 442 Climbing Moncton Center
Wed 06:46:44 44.6667 -65.2167 260° West 390 723 7,468 442 Climbing Moncton Center
Wed 06:47:44 44.6333 -65.3833 254° West 390 723 7,925 457 Climbing Moncton Center
Wed 06:48:44 44.6167 -65.5167 260° West 380 703 8,382 457 Climbing Moncton Center
Wed 06:49:44 44.6000 -65.6667 261° West 370 686 8,839 427 Climbing Moncton Center
Wed 06:50:44 44.5833 -65.8000 260° West 370 686 9,235 396 Climbing Moncton Center
Wed 06:51:44 44.5667 -65.9500 261° West 370 686 9,632 396 Climbing Moncton Center
Wed 06:52:44 44.5500 -66.0833 260° West 370 686 10,028 396 Climbing Moncton Center
Wed 06:53:44 44.5167 -66.2500 254° West 370 686 10,424 366 Climbing Moncton Center
Wed 06:54:44 44.5000 -66.3667 259° West 360 666 10,759 274 Climbing Moncton Center
Wed 06:55:44 44.4667 -66.5000 251° West 360 666 10,973 107 Climbing Moncton Center
Wed 06:56:44 44.4500 -66.6500 261° West 370 686 10,973  Level Moncton Center
Wed 06:57:44 44.4333 -66.8167 262° West 400 740 10,973  Level Moncton Center
Wed 06:58:44 44.4000 -66.9667 253° West 420 777 10,973  Level Moncton Center
Wed 06:59:44 44.3833 -67.1333 262° West 430 797 10,973  Level Moncton Center
Wed 07:00:26 44.3794 -67.2394 267° West 439 813 10,973  Level Boston Center
Wed 07:00:44 44.3500 -67.3167 242° Southwest 450 834 10,973  Level Moncton Center
Wed 07:01:26 44.3517 -67.4133 271° West 452 837 10,973  Level Boston Center
Wed 07:02:26 44.3256 -67.5839 258° West 457 847 10,973  Level Boston Center
Wed 07:03:26 44.2992 -67.7544 258° West 457 847 10,973  Level Boston Center
Wed 07:04:26 44.2706 -67.9250 257° West 457 847 10,973  Level Boston Center
Wed 07:05:26 44.2417 -68.0953 257° West 457 847 10,973  Level Boston Center
Wed 07:06:26 44.2167 -68.2625 258° West 451 835 10,973  Level Boston Center
Wed 07:07:26 44.1894 -68.4325 257° West 451 835 10,973  Level Boston Center
Wed 07:08:26 44.1583 -68.6197 257° West 451 835 10,973  Level Boston Center
Wed 07:09:26 44.1306 -68.7894 257° West 456 845 10,973  Level Boston Center
Wed 07:10:26 44.1022 -68.9589 257° West 456 845 10,973  Level Boston Center
Wed 07:11:26 44.0719 -69.1342 257° West 456 845 10,973  Level Boston Center
Wed 07:12:26 44.0433 -69.3033 257° West 456 845 10,973  Level Boston Center
Wed 07:13:26 44.0106 -69.4753 255° West 456 845 10,973  Level Boston Center
Wed 07:14:26 43.9775 -69.6531 256° West 456 845 10,973  Level Boston Center
Wed 07:15:26 43.9558 -69.7925 258° West 456 845 10,973  Level Boston Center
Wed 07:16:26 43.9206 -69.9844 256° West 456 845 10,973  Level Boston Center
Wed 07:17:26 43.8944 -70.1408 257° West 462 856 10,973  Level Boston Center
Wed 07:18:26 43.8564 -70.3297 254° West 462 856 10,973  Level Boston Center
Wed 07:19:26 43.8242 -70.5006 255° West 467 864 10,973  Level Boston Center
Wed 07:20:26 43.7914 -70.6769 256° West 467 864 10,973  Level Boston Center
Wed 07:21:26 43.7586 -70.8506 255° West 472 874 10,973  Level Boston Center
Wed 07:22:38 43.7253 -71.0239 255° West 472 874 10,973  Level Boston Center
Wed 07:23:38 43.6861 -71.2286 255° West 472 874 10,973  Level Boston Center
Wed 07:24:38 43.6506 -71.4214 256° West 467 864 10,973  Level Boston Center
Wed 07:25:50 43.6164 -71.5942 255° West 467 864 10,973  Level Boston Center
Wed 07:26:50 43.5761 -71.8011 255° West 467 864 10,973  Level Boston Center
Wed 07:27:50 43.5414 -71.9733 255° West 467 864 10,973  Level Boston Center
Wed 07:28:50 43.5086 -72.1453 255° West 472 874 10,973  Level Boston Center
Wed 07:29:50 43.4717 -72.3256 254° West 479 887 10,973  Level Boston Center
Wed 07:30:50 43.4361 -72.5000 254° West 479 887 10,973 -30 Level Boston Center
Wed 07:31:50 43.4006 -72.6714 254° West 474 877 10,912 -1,829 Descending Boston Center
Wed 07:32:50 43.3647 -72.8428 254° West 474 877 7,315 -594 Descending Boston Center
Wed 07:33:50 43.3283 -73.0139 254° West 474 877 9,723 838 Climbing Boston Center
Wed 07:34:50 43.2942 -73.1817 254° West 474 877 8,992 -747 Descending Boston Center
Wed 07:35:50 43.2594 -73.3494 254° West 474 877 8,230 -732 Descending Boston Center
Wed 07:36:50 43.2208 -73.4972 250° West 469 869 7,529 -457 Descending Boston Center
Wed 07:37:50 43.1278 -73.6378 228° Southwest 453 838 7,315 -152 Descending Boston Center
Wed 07:38:50 43.0042 -73.6950 199° South 439 813 7,224 -411 Descending Boston Center
Wed 07:39:50 42.8764 -73.7489 197° South 446 826 6,492 -655 Descending Boston Center
Wed 07:40:50 42.7822 -73.7894 198° South 458 848 5,913 -625 Descending Boston Center
Wed 07:41:50 42.6564 -73.8489 199° South 440 814 5,243 -518 Descending Boston Center
Wed 07:42:50 42.5622 -73.8861 196° South 404 748 4,877 -168 Descending Boston Center
Wed 07:43:50 42.4511 -73.9369 199° South 389 721 4,907 15 Climbing Boston Center
Wed 07:44:50 42.3525 -73.9797 198° South 396 734 4,907  Level Boston Center
Wed 07:45:50 42.2392 -74.0300 198° South 396 734 4,907 -15 Level Boston Center
Wed 07:46:50 42.1447 -74.0725 198° South 402 745 4,877  Descending Boston Center
Wed 07:47:50 42.0378 -74.1200 198° South 402 745 4,907  Climbing Boston Center
Wed 07:48:50 41.9225 -74.1700 198° South 407 753 4,877 -213 Descending Boston Center
Wed 07:49:50 41.8300 -74.2092 198° South 407 753 4,481 -533 Descending Boston Center
Wed 07:50:50 41.7189 -74.2589 198° South 397 735 3,810 -594 Descending Boston Center
Wed 07:51:50 41.6369 -74.2956 198° South 365 676 3,292 -472 Descending Boston Center
Wed 07:52:50 41.5489 -74.3347 198° South 327 605 2,865 -409 Descending Boston Center
Wed 07:54:40 41.4167 -74.3833 195° South 273 505 2,134 -247 Descending New York TRACON
Wed 07:55:40 41.3500 -74.4167 201° Southwest 273 505 2,164 15 Climbing New York TRACON
Wed 07:56:40 41.2667 -74.4500 197° South 278 515 2,164  Level New York TRACON
Wed 07:57:34 41.2000 -74.4833 201° Southwest 279 517 2,164  Level New York TRACON
Wed 07:58:34 41.1333 -74.5167 201° Southwest 277 513 2,164  Level New York TRACON
Wed 07:59:34 41.0500 -74.5333 189° South 278 515 2,164  Level New York TRACON
Wed 08:00:28 40.9833 -74.5500 191° South 281 520 2,164 -16 Level New York TRACON
Wed 08:01:28 40.9000 -74.5667 189° South 280 518 2,134 -144 Descending New York TRACON
Wed 08:02:22 40.8333 -74.5833 191° South 276 512 1,890 -305 Descending New York TRACON
Wed 08:03:22 40.7667 -74.6000 191° South 265 491 1,554 -183 Descending New York TRACON
Wed 08:04:22 40.7000 -74.5833 169° South 257 476 1,524  Descending New York TRACON
Wed 08:05:22 40.6333 -74.5333 150° Southeast 253 468 1,554 -15 Climbing New York TRACON
Wed 08:06:22 40.5833 -74.4667 135° Southeast 248 459 1,494 -176 Descending New York TRACON
Wed 08:07:16 40.5667 -74.4000 108° East 247 457 1,219 -289 Descending New York TRACON
Wed 08:08:16 40.5333 -74.3167 118° Southeast 218 404 945 -137 Descending New York TRACON
Wed 08:09:16 40.5333 -74.2667 90° East 176 327 945 -112 Level New York TRACON
Wed 08:10:10 40.5667 -74.2500 21° North 179 332 732 -208 Descending New York TRACON
Wed 08:11:10 40.6000 -74.2167 37° Northeast 160 296 549 -198 Descending New York TRACON
Wed 08:12:10 40.6333 -74.2000 21° North 128 237 335 -213 Descending New York TRACON
Wed 08:14:00 40.6833 -74.1667 23° Northeast  Level FlightAware Approximate
Wed 08:21:00 40.6925 -74.1687 23° Northeast  Level Estimated

Login

Don't have an account? Register now (free) for customized features, flight alerts, and more!